Time;durP1;ratioP1;P1;durP2;ratioP2;P2;SDS_P1;SDS_P2;PMS_P1;PMS_P2;Temp;Humidity;BMP_temperature;BMP_pressure;BME280_temperature;BME280_humidity;BME280_pressure;Samples;Min_cycle;Max_cycle;Signal;HPM_P1;HPM_P2
2023/10/14 00:00:37;;;;;;;;;;;21.60;81.50;;;;;;5007767;27;85148;-40
2023/10/14 00:03:23;;;;;;;;;;;21.50;81.50;;;;;;5015111;27;84043;-40
2023/10/14 00:05:49;;;;;;;;;;;21.50;81.60;;;;;;5012345;27;84214;-40
2023/10/14 00:08:14;;;;;;;;;;;21.60;81.70;;;;;;5010057;27;85891;-40
2023/10/14 00:10:40;;;;;;;;;;;21.50;81.70;;;;;;5009674;27;84426;-41
2023/10/14 00:13:10;;;;;;;;;;;21.50;81.70;;;;;;5009069;27;87108;-42
2023/10/14 00:15:37;;;;;;;;;;;21.50;81.80;;;;;;5015436;27;84070;-39
2023/10/14 00:18:02;;;;;;;;;;;21.50;81.60;;;;;;5019953;27;84380;-44
2023/10/14 00:20:34;;;;;;;;;;;21.50;81.50;;;;;;5012505;27;87634;-45
2023/10/14 00:23:00;;;;;;;;;;;21.50;81.60;;;;;;5012908;27;85640;-38
2023/10/14 00:25:25;;;;;;;;;;;21.50;81.50;;;;;;5011931;27;88341;-39
2023/10/14 00:27:51;;;;;;;;;;;21.40;81.70;;;;;;5016989;27;85044;-40
2023/10/14 00:30:19;;;;;;;;;;;21.40;81.80;;;;;;5011500;27;85231;-38
2023/10/14 00:32:45;;;;;;;;;;;21.40;81.80;;;;;;5016274;27;85039;-38
2023/10/14 00:35:18;;;;;;;;;;;21.40;81.80;;;;;;5016957;27;84808;-39
2023/10/14 00:37:43;;;;;;;;;;;21.40;81.80;;;;;;5014015;27;84456;-39
2023/10/14 00:40:21;;;;;;;;;;;21.40;81.90;;;;;;5012453;27;85118;-39
2023/10/14 00:42:47;;;;;;;;;;;21.40;81.90;;;;;;5008785;27;85636;-39
2023/10/14 00:45:12;;;;;;;;;;;21.30;81.80;;;;;;5017779;27;85503;-39
2023/10/14 00:47:43;;;;;;;;;;;21.40;81.90;;;;;;5006911;27;88497;-39
2023/10/14 00:52:57;;;;;;;;;;;21.30;82.00;;;;;;5011073;27;84833;-39
2023/10/14 00:55:35;;;;;;;;;;;21.30;81.80;;;;;;5013042;27;84285;-38
2023/10/14 00:58:00;;;;;;;;;;;21.30;81.90;;;;;;5017369;27;89871;-38
2023/10/14 01:00:37;;;;;;;;;;;21.30;81.80;;;;;;5015560;27;84455;-38
2023/10/14 01:03:10;;;;;;;;;;;21.30;82.00;;;;;;5016176;27;84118;-38
2023/10/14 01:05:36;;;;;;;;;;;21.30;81.90;;;;;;5012630;27;83812;-38
2023/10/14 01:08:11;;;;;;;;;;;21.20;82.10;;;;;;5012277;27;84522;-39
2023/10/14 01:10:36;;;;;;;;;;;21.20;81.90;;;;;;5013302;27;86965;-40
2023/10/14 01:13:07;;;;;;;;;;;21.20;82.00;;;;;;5017524;27;85892;-38
2023/10/14 01:15:33;;;;;;;;;;;21.10;82.10;;;;;;5015264;27;84530;-38
2023/10/14 01:18:00;;;;;;;;;;;21.10;82.10;;;;;;5014332;27;84787;-38
2023/10/14 01:20:37;;;;;;;;;;;21.20;81.80;;;;;;5014442;27;84357;-38
2023/10/14 01:23:14;;;;;;;;;;;21.10;81.70;;;;;;5012086;27;84611;-38
2023/10/14 01:25:52;;;;;;;;;;;21.10;82.00;;;;;;5011885;27;86036;-39
2023/10/14 01:28:21;;;;;;;;;;;21.10;82.30;;;;;;5015714;27;84108;-38
2023/10/14 01:31:50;;;;;;;;;;;21.10;82.20;;;;;;5017716;27;85040;-38
2023/10/14 01:34:22;;;;;;;;;;;21.10;82.10;;;;;;5011849;27;84357;-38
2023/10/14 01:36:50;;;;;;;;;;;21.10;82.20;;;;;;5012949;27;86754;-38
2023/10/14 01:39:21;;;;;;;;;;;21.10;81.80;;;;;;5019907;27;85798;-38
2023/10/14 01:41:47;;;;;;;;;;;21.10;81.80;;;;;;5005963;27;84395;-38
2023/10/14 01:44:21;;;;;;;;;;;21.10;81.60;;;;;;5015681;27;84107;-39
2023/10/14 01:46:47;;;;;;;;;;;21.00;81.90;;;;;;5014535;27;85144;-38
2023/10/14 01:49:19;;;;;;;;;;;21.00;82.10;;;;;;5013469;27;84364;-38
2023/10/14 01:51:49;;;;;;;;;;;21.00;81.80;;;;;;5013967;27;84862;-39
2023/10/14 01:54:15;;;;;;;;;;;21.00;81.90;;;;;;5013131;27;84400;-38
2023/10/14 01:56:42;;;;;;;;;;;21.00;82.10;;;;;;5015921;27;83798;-38
2023/10/14 01:59:08;;;;;;;;;;;21.00;82.00;;;;;;5014049;27;85405;-38
2023/10/14 02:01:41;;;;;;;;;;;20.90;81.70;;;;;;5018219;27;85187;-38
2023/10/14 02:04:07;;;;;;;;;;;21.00;81.70;;;;;;5010706;27;86391;-38
2023/10/14 02:06:32;;;;;;;;;;;21.00;81.60;;;;;;5013367;27;90375;-39
2023/10/14 02:09:00;;;;;;;;;;;21.00;81.50;;;;;;5018650;27;84447;-38
2023/10/14 02:11:33;;;;;;;;;;;20.90;81.30;;;;;;5006353;27;84374;-39
2023/10/14 02:14:00;;;;;;;;;;;20.90;81.40;;;;;;5013216;27;85008;-38
2023/10/14 02:16:25;;;;;;;;;;;20.90;81.50;;;;;;5014536;27;87166;-39
2023/10/14 02:18:51;;;;;;;;;;;20.90;81.30;;;;;;5010087;27;84379;-38
2023/10/14 02:21:18;;;;;;;;;;;20.80;81.40;;;;;;5013601;27;85340;-39
2023/10/14 02:23:44;;;;;;;;;;;20.90;81.50;;;;;;5016936;27;84969;-39
2023/10/14 02:26:15;;;;;;;;;;;20.90;81.30;;;;;;5009517;27;84357;-38
2023/10/14 02:28:45;;;;;;;;;;;20.80;81.30;;;;;;5007915;27;85297;-39
2023/10/14 02:31:17;;;;;;;;;;;20.80;81.40;;;;;;5009324;27;84612;-39
2023/10/14 02:33:47;;;;;;;;;;;20.80;81.60;;;;;;5012826;27;84893;-38
2023/10/14 02:36:15;;;;;;;;;;;20.80;81.60;;;;;;5015000;27;84943;-38
2023/10/14 02:38:53;;;;;;;;;;;20.80;81.60;;;;;;5019747;27;84436;-38
2023/10/14 02:41:26;;;;;;;;;;;20.80;81.50;;;;;;5007987;27;85319;-39
2023/10/14 02:44:19;;;;;;;;;;;20.70;81.40;;;;;;5012817;27;85242;-40
2023/10/14 02:46:45;;;;;;;;;;;20.70;81.40;;;;;;5010768;27;85358;-39
2023/10/14 02:49:14;;;;;;;;;;;20.70;81.50;;;;;;5014445;27;84734;-40
2023/10/14 02:51:43;;;;;;;;;;;20.70;81.30;;;;;;5015242;27;84352;-39
2023/10/14 02:54:33;;;;;;;;;;;20.70;81.40;;;;;;5016759;27;85882;-39
2023/10/14 02:57:00;;;;;;;;;;;20.70;81.40;;;;;;5014177;27;84545;-39
2023/10/14 03:02:25;;;;;;;;;;;20.60;81.50;;;;;;4988960;27;84534;-39
2023/10/14 03:04:55;;;;;;;;;;;20.60;81.60;;;;;;5010594;27;84295;-39
2023/10/14 03:07:30;;;;;;;;;;;20.60;81.60;;;;;;5015181;27;86088;-39
2023/10/14 03:12:39;;;;;;;;;;;20.60;81.50;;;;;;5006716;27;90126;-39
2023/10/14 03:15:20;;;;;;;;;;;20.50;81.50;;;;;;5007140;27;84675;-40
2023/10/14 03:22:54;;;;;;;;;;;20.50;81.50;;;;;;5013994;27;84223;-40
2023/10/14 03:25:23;;;;;;;;;;;20.50;81.60;;;;;;5015881;27;85759;-40
2023/10/14 03:28:00;;;;;;;;;;;20.50;81.60;;;;;;5014963;27;84848;-39
2023/10/14 03:30:26;;;;;;;;;;;20.50;81.60;;;;;;5010623;27;84826;-40
2023/10/14 03:32:52;;;;;;;;;;;20.40;81.80;;;;;;5009519;27;84428;-38
2023/10/14 03:35:21;;;;;;;;;;;20.40;81.70;;;;;;5011266;27;86969;-41
2023/10/14 03:38:00;;;;;;;;;;;20.40;81.60;;;;;;5018076;27;92451;-40
2023/10/14 03:43:15;;;;;;;;;;;20.40;81.80;;;;;;4999736;27;84401;-40
2023/10/14 03:46:23;;;;;;;;;;;20.40;81.80;;;;;;5016326;27;85303;-40
2023/10/14 03:48:37;;;;;;;;;;;20.40;81.70;;;;;;5015684;27;84776;-40
2023/10/14 03:51:03;;;;;;;;;;;20.30;81.70;;;;;;5013666;27;89592;-39
2023/10/14 03:53:31;;;;;;;;;;;20.40;81.70;;;;;;5017541;27;84555;-41
2023/10/14 03:55:57;;;;;;;;;;;20.30;81.70;;;;;;5012681;27;84642;-39
2023/10/14 03:58:23;;;;;;;;;;;20.40;81.70;;;;;;5020612;27;85374;-39
2023/10/14 04:00:50;;;;;;;;;;;20.30;81.70;;;;;;5010762;27;84937;-39
2023/10/14 04:03:29;;;;;;;;;;;20.30;81.50;;;;;;5016208;27;83914;-39
2023/10/14 04:05:59;;;;;;;;;;;20.30;81.60;;;;;;5015679;27;84489;-39
2023/10/14 04:08:31;;;;;;;;;;;20.30;81.80;;;;;;5017423;27;84908;-39
2023/10/14 04:11:11;;;;;;;;;;;20.20;81.40;;;;;;5010909;27;86811;-40
2023/10/14 04:13:40;;;;;;;;;;;20.20;81.70;;;;;;5016405;27;84437;-39
2023/10/14 04:16:07;;;;;;;;;;;20.20;81.50;;;;;;5017876;27;86563;-40
2023/10/14 04:18:33;;;;;;;;;;;20.20;81.40;;;;;;5016682;27;84782;-39
2023/10/14 04:21:13;;;;;;;;;;;20.20;81.40;;;;;;5012090;27;90253;-41
2023/10/14 04:23:59;;;;;;;;;;;20.20;81.50;;;;;;5017950;27;86743;-40
2023/10/14 04:26:25;;;;;;;;;;;20.20;81.50;;;;;;5013261;27;85110;-42
2023/10/14 04:28:53;;;;;;;;;;;20.20;81.70;;;;;;5004485;27;84537;-39
2023/10/14 04:31:26;;;;;;;;;;;20.10;81.30;;;;;;5005108;27;85184;-39
2023/10/14 04:33:53;;;;;;;;;;;20.10;82.30;;;;;;5015191;27;87338;-41
2023/10/14 04:36:37;;;;;;;;;;;20.10;81.30;;;;;;5017719;27;85959;-39
2023/10/14 04:39:16;;;;;;;;;;;20.00;81.60;;;;;;5015817;27;87665;-38
2023/10/14 04:44:44;;;;;;;;;;;20.10;81.50;;;;;;5005037;27;85321;-40
2023/10/14 04:47:19;;;;;;;;;;;20.10;81.30;;;;;;5015580;27;85589;-41
2023/10/14 04:49:51;;;;;;;;;;;20.00;81.20;;;;;;5011240;27;84657;-39
2023/10/14 04:52:18;;;;;;;;;;;20.00;81.50;;;;;;5017912;27;84250;-40
2023/10/14 04:54:54;;;;;;;;;;;20.00;81.60;;;;;;5014572;27;84028;-39
2023/10/14 04:57:21;;;;;;;;;;;20.00;81.50;;;;;;5013987;27;85070;-40
2023/10/14 04:59:53;;;;;;;;;;;20.00;81.50;;;;;;5016314;27;84524;-40
2023/10/14 05:02:21;;;;;;;;;;;20.00;81.50;;;;;;5009161;27;91549;-40
2023/10/14 05:04:47;;;;;;;;;;;20.00;81.50;;;;;;5010540;27;85317;-41
2023/10/14 05:07:13;;;;;;;;;;;20.00;81.40;;;;;;5012742;27;85459;-39
2023/10/14 05:09:41;;;;;;;;;;;20.00;81.60;;;;;;5013769;27;84979;-40
2023/10/14 05:12:17;;;;;;;;;;;19.90;81.30;;;;;;5011274;27;84423;-39
2023/10/14 05:14:42;;;;;;;;;;;19.90;81.50;;;;;;5010637;27;85514;-39
2023/10/14 05:19:41;;;;;;;;;;;19.90;81.20;;;;;;5015531;27;84313;-39
2023/10/14 05:22:13;;;;;;;;;;;19.90;81.50;;;;;;5015964;27;84471;-42
2023/10/14 05:24:48;;;;;;;;;;;19.90;81.30;;;;;;5022536;27;84412;-42
2023/10/14 05:27:14;;;;;;;;;;;19.90;81.30;;;;;;5008528;27;85433;-41
2023/10/14 05:29:39;;;;;;;;;;;19.80;81.40;;;;;;5018422;27;85677;-40
2023/10/14 05:32:10;;;;;;;;;;;19.80;81.40;;;;;;5010029;27;86254;-40
2023/10/14 05:34:37;;;;;;;;;;;19.80;81.40;;;;;;5006014;27;86517;-41
2023/10/14 05:37:06;;;;;;;;;;;19.80;81.40;;;;;;5008075;27;84524;-40
2023/10/14 05:39:37;;;;;;;;;;;19.80;81.50;;;;;;5004631;27;85471;-40
2023/10/14 05:42:15;;;;;;;;;;;19.80;81.50;;;;;;4999924;27;89116;-39
2023/10/14 05:44:47;;;;;;;;;;;19.70;81.20;;;;;;5006361;27;84159;-41
2023/10/14 05:47:15;;;;;;;;;;;19.70;81.40;;;;;;5004380;27;89622;-40
2023/10/14 05:49:42;;;;;;;;;;;19.70;81.60;;;;;;5004075;27;88942;-40
2023/10/14 05:52:08;;;;;;;;;;;19.70;81.60;;;;;;5011685;27;85655;-42
2023/10/14 05:54:34;;;;;;;;;;;19.70;81.30;;;;;;5012619;27;84924;-39
2023/10/14 05:57:00;;;;;;;;;;;19.70;81.20;;;;;;5002789;27;85166;-40
2023/10/14 05:59:25;;;;;;;;;;;19.70;81.70;;;;;;5011358;27;84159;-40
2023/10/14 06:01:51;;;;;;;;;;;19.70;81.70;;;;;;5005206;27;84470;-40
2023/10/14 06:04:17;;;;;;;;;;;19.70;81.40;;;;;;5008843;27;84348;-42
2023/10/14 06:06:43;;;;;;;;;;;19.70;81.40;;;;;;5015074;27;86859;-39
2023/10/14 06:09:09;;;;;;;;;;;19.70;81.50;;;;;;5007176;27;89549;-40
2023/10/14 06:11:35;;;;;;;;;;;19.70;81.50;;;;;;5009447;27;88526;-40
2023/10/14 06:14:03;;;;;;;;;;;19.70;81.40;;;;;;5009312;27;86385;-41
2023/10/14 06:16:29;;;;;;;;;;;19.70;81.40;;;;;;5003417;27;87509;-41
2023/10/14 06:18:57;;;;;;;;;;;19.70;81.40;;;;;;5002254;27;86011;-42
2023/10/14 06:21:27;;;;;;;;;;;19.70;81.50;;;;;;5003293;27;84709;-40
2023/10/14 06:23:53;;;;;;;;;;;19.60;81.40;;;;;;5001043;27;85703;-41
2023/10/14 06:26:18;;;;;;;;;;;19.60;81.60;;;;;;4999416;27;86245;-40
2023/10/14 06:28:45;;;;;;;;;;;19.60;82.40;;;;;;5002362;27;84937;-42
2023/10/14 06:31:11;;;;;;;;;;;19.50;82.40;;;;;;5016642;27;84372;-42
2023/10/14 06:33:40;;;;;;;;;;;19.50;82.50;;;;;;5009056;27;84757;-41
2023/10/14 06:36:07;;;;;;;;;;;19.50;82.50;;;;;;5008109;27;85498;-41
2023/10/14 06:38:33;;;;;;;;;;;19.50;82.50;;;;;;5009992;27;85663;-41
2023/10/14 06:41:01;;;;;;;;;;;19.40;82.50;;;;;;5007614;27;86643;-41
2023/10/14 06:43:27;;;;;;;;;;;19.40;82.60;;;;;;5012152;27;84513;-39
2023/10/14 06:45:56;;;;;;;;;;;19.50;82.40;;;;;;5016796;27;84801;-39
2023/10/14 06:48:22;;;;;;;;;;;19.50;82.30;;;;;;5016573;27;86387;-39
2023/10/14 06:50:47;;;;;;;;;;;19.40;82.30;;;;;;5012958;27;84178;-39
2023/10/14 06:53:18;;;;;;;;;;;19.40;82.20;;;;;;5008838;27;88038;-40
2023/10/14 06:55:44;;;;;;;;;;;19.40;82.30;;;;;;5020532;27;84396;-39
2023/10/14 06:58:11;;;;;;;;;;;19.40;82.00;;;;;;5006932;27;86802;-39
2023/10/14 07:00:40;;;;;;;;;;;19.40;82.10;;;;;;5011416;27;85546;-39
2023/10/14 07:03:07;;;;;;;;;;;19.40;81.90;;;;;;5006790;27;84258;-39
2023/10/14 07:05:43;;;;;;;;;;;19.40;82.00;;;;;;5008698;27;85707;-40
2023/10/14 07:08:11;;;;;;;;;;;19.40;81.80;;;;;;5013251;27;84839;-39
2023/10/14 07:10:36;;;;;;;;;;;19.40;81.60;;;;;;5002307;27;91895;-39
2023/10/14 07:13:03;;;;;;;;;;;19.40;81.80;;;;;;5012472;27;84713;-39
2023/10/14 07:15:32;;;;;;;;;;;19.40;81.80;;;;;;5010248;27;86098;-39
2023/10/14 07:17:58;;;;;;;;;;;19.40;81.80;;;;;;5007022;27;85928;-39
2023/10/14 07:20:25;;;;;;;;;;;19.40;81.60;;;;;;5005965;27;83850;-39
2023/10/14 07:22:51;;;;;;;;;;;19.40;81.60;;;;;;5014677;27;83519;-39
2023/10/14 07:25:18;;;;;;;;;;;19.40;81.50;;;;;;5021973;27;85136;-40
2023/10/14 07:27:44;;;;;;;;;;;19.40;81.60;;;;;;5012083;27;86777;-39
2023/10/14 07:30:15;;;;;;;;;;;19.40;81.50;;;;;;5018528;27;86379;-39
2023/10/14 07:32:42;;;;;;;;;;;19.40;81.20;;;;;;5000082;27;87033;-39
2023/10/14 07:35:11;;;;;;;;;;;19.40;82.10;;;;;;5012564;27;87370;-40
2023/10/14 07:37:40;;;;;;;;;;;19.40;81.20;;;;;;5010347;27;84405;-39
2023/10/14 07:40:11;;;;;;;;;;;19.50;81.20;;;;;;5016637;27;84205;-39
2023/10/14 07:42:39;;;;;;;;;;;19.50;81.20;;;;;;5000267;27;84185;-39
2023/10/14 07:45:05;;;;;;;;;;;19.50;81.00;;;;;;5014855;27;84254;-39
2023/10/14 07:47:37;;;;;;;;;;;19.50;81.00;;;;;;5017221;27;84599;-39
2023/10/14 07:50:09;;;;;;;;;;;19.50;80.40;;;;;;5019060;27;87393;-39
2023/10/14 07:52:35;;;;;;;;;;;19.50;80.70;;;;;;5009408;27;84300;-41
2023/10/14 07:55:02;;;;;;;;;;;19.50;80.60;;;;;;5004922;27;85665;-40
2023/10/14 07:57:27;;;;;;;;;;;19.50;80.30;;;;;;5013589;27;85194;-40
2023/10/14 07:59:59;;;;;;;;;;;19.50;80.50;;;;;;5012719;27;85211;-40
2023/10/14 08:02:26;;;;;;;;;;;19.50;80.60;;;;;;5008024;27;85900;-41
2023/10/14 08:04:53;;;;;;;;;;;19.40;80.50;;;;;;5015263;27;84716;-41
2023/10/14 08:07:19;;;;;;;;;;;19.50;80.50;;;;;;5016645;27;85155;-41
2023/10/14 08:09:44;;;;;;;;;;;19.50;80.40;;;;;;5020354;27;89249;-40
2023/10/14 08:12:10;;;;;;;;;;;19.50;80.40;;;;;;5012881;27;87116;-42
2023/10/14 08:14:35;;;;;;;;;;;19.50;80.20;;;;;;5017958;27;85348;-40
2023/10/14 08:17:01;;;;;;;;;;;19.50;80.00;;;;;;5011373;27;85000;-43
2023/10/14 08:19:26;;;;;;;;;;;19.50;80.30;;;;;;5013676;27;86307;-41
2023/10/14 08:21:52;;;;;;;;;;;19.50;80.40;;;;;;5009855;27;86612;-42
2023/10/14 08:24:20;;;;;;;;;;;19.50;80.20;;;;;;5026092;27;84975;-42
2023/10/14 08:26:46;;;;;;;;;;;19.50;80.30;;;;;;5012390;27;84410;-40
2023/10/14 08:29:12;;;;;;;;;;;19.50;80.10;;;;;;5007628;27;84502;-42
2023/10/14 08:31:38;;;;;;;;;;;19.50;80.00;;;;;;5009465;27;87785;-42
2023/10/14 08:34:07;;;;;;;;;;;19.50;80.20;;;;;;5017245;27;85499;-40
2023/10/14 08:36:32;;;;;;;;;;;19.50;79.90;;;;;;5022177;27;87815;-40
2023/10/14 08:38:58;;;;;;;;;;;19.50;79.60;;;;;;5015060;27;84375;-40
2023/10/14 08:41:25;;;;;;;;;;;19.50;79.70;;;;;;5013636;27;86046;-41
2023/10/14 08:43:56;;;;;;;;;;;19.50;79.70;;;;;;5011372;27;85598;-40
2023/10/14 08:46:23;;;;;;;;;;;19.50;79.70;;;;;;5020710;27;85707;-41
2023/10/14 08:48:50;;;;;;;;;;;19.50;80.20;;;;;;5012198;27;84220;-43
2023/10/14 08:51:16;;;;;;;;;;;19.50;79.50;;;;;;5014941;27;84458;-40
2023/10/14 08:53:42;;;;;;;;;;;19.60;80.00;;;;;;5021315;27;84236;-41
2023/10/14 08:56:08;;;;;;;;;;;19.50;79.70;;;;;;5017516;27;88063;-40
2023/10/14 08:58:38;;;;;;;;;;;19.50;79.90;;;;;;5017377;27;85866;-41
2023/10/14 09:01:06;;;;;;;;;;;19.60;79.90;;;;;;5010443;27;85425;-41
2023/10/14 09:03:31;;;;;;;;;;;19.60;79.70;;;;;;5025862;27;84370;-43
2023/10/14 09:05:57;;;;;;;;;;;19.60;79.80;;;;;;5014302;27;88865;-40
2023/10/14 09:08:24;;;;;;;;;;;19.60;79.70;;;;;;5012015;27;85402;-41
2023/10/14 09:10:50;;;;;;;;;;;19.50;79.90;;;;;;5020515;27;84783;-42
2023/10/14 09:13:20;;;;;;;;;;;19.60;80.00;;;;;;5020373;27;88487;-41
2023/10/14 09:15:45;;;;;;;;;;;19.60;79.80;;;;;;5008679;27;86111;-41
2023/10/14 09:18:16;;;;;;;;;;;19.60;80.00;;;;;;5020380;27;84401;-40
2023/10/14 09:20:42;;;;;;;;;;;19.60;80.00;;;;;;5012707;27;86481;-41
2023/10/14 09:23:17;;;;;;;;;;;19.60;79.60;;;;;;5012894;27;85001;-40
2023/10/14 09:25:46;;;;;;;;;;;19.60;79.80;;;;;;5015829;27;87654;-43
2023/10/14 09:28:12;;;;;;;;;;;19.70;79.40;;;;;;5018008;27;85237;-41
2023/10/14 09:30:44;;;;;;;;;;;19.70;79.40;;;;;;5017333;27;84394;-41
2023/10/14 09:33:11;;;;;;;;;;;19.70;79.40;;;;;;5012146;27;85481;-42
2023/10/14 09:35:41;;;;;;;;;;;19.70;79.20;;;;;;5017713;27;84424;-40
2023/10/14 09:38:08;;;;;;;;;;;19.70;79.50;;;;;;5017517;27;84457;-41
2023/10/14 09:40:34;;;;;;;;;;;19.70;79.20;;;;;;5014090;27;84631;-41
2023/10/14 09:43:00;;;;;;;;;;;19.80;78.90;;;;;;5014665;27;85161;-41
2023/10/14 09:45:27;;;;;;;;;;;19.80;78.80;;;;;;5009052;27;89663;-41
2023/10/14 09:47:57;;;;;;;;;;;19.80;79.10;;;;;;4997976;27;87668;-40
2023/10/14 09:50:23;;;;;;;;;;;19.80;78.90;;;;;;5015408;27;85514;-41
2023/10/14 09:52:52;;;;;;;;;;;19.80;78.90;;;;;;5006246;27;91916;-40
2023/10/14 09:55:19;;;;;;;;;;;19.90;79.10;;;;;;5023699;27;84594;-40
2023/10/14 09:57:45;;;;;;;;;;;19.90;79.30;;;;;;5015348;27;85227;-39
2023/10/14 10:00:11;;;;;;;;;;;19.90;79.20;;;;;;5015596;27;84868;-43
2023/10/14 10:02:39;;;;;;;;;;;19.90;78.80;;;;;;5014869;27;85435;-43
2023/10/14 10:05:05;;;;;;;;;;;19.90;79.20;;;;;;5017762;27;88387;-42
2023/10/14 10:07:53;;;;;;;;;;;20.00;79.30;;;;;;5007983;27;86283;-42
2023/10/14 10:10:22;;;;;;;;;;;20.00;78.70;;;;;;4982809;27;89528;-40
2023/10/14 10:12:53;;;;;;;;;;;20.00;79.00;;;;;;5006149;27;85270;-40
2023/10/14 10:15:19;;;;;;;;;;;20.10;75.50;;;;;;5006083;27;84388;-42
2023/10/14 10:17:53;;;;;;;;;;;20.10;76.90;;;;;;5007716;27;86134;-41
2023/10/14 10:20:26;;;;;;;;;;;20.20;75.80;;;;;;5010429;27;85044;-41
2023/10/14 10:22:52;;;;;;;;;;;20.20;75.00;;;;;;5005714;27;85498;-40
2023/10/14 10:25:20;;;;;;;;;;;20.20;75.00;;;;;;5002102;27;85237;-40
2023/10/14 10:27:49;;;;;;;;;;;20.30;74.90;;;;;;5004695;27;84358;-40
2023/10/14 10:30:16;;;;;;;;;;;20.30;74.10;;;;;;5017621;27;86869;-40
2023/10/14 10:32:46;;;;;;;;;;;20.10;61.70;;;;;;5007622;27;84890;-41
2023/10/14 10:35:13;;;;;;;;;;;20.00;60.80;;;;;;5014750;27;89808;-40
2023/10/14 10:37:40;;;;;;;;;;;19.90;57.20;;;;;;5013777;27;85154;-40
2023/10/14 10:40:11;;;;;;;;;;;19.90;57.70;;;;;;5004593;27;83779;-41
2023/10/14 10:42:37;;;;;;;;;;;19.80;56.50;;;;;;5006331;27;86679;-40
2023/10/14 10:45:09;;;;;;;;;;;19.80;56.70;;;;;;5008212;27;84669;-42
2023/10/14 10:47:44;;;;;;;;;;;19.90;58.60;;;;;;5009819;27;85603;-40
2023/10/14 10:50:14;;;;;;;;;;;19.90;62.00;;;;;;5007472;27;86024;-41
2023/10/14 10:52:40;;;;;;;;;;;20.00;61.50;;;;;;5006136;27;85028;-40
2023/10/14 10:55:06;;;;;;;;;;;20.00;62.10;;;;;;5009619;27;85364;-41
2023/10/14 10:57:32;;;;;;;;;;;20.10;62.80;;;;;;5006394;27;88770;-40
2023/10/14 10:59:58;;;;;;;;;;;20.10;63.30;;;;;;5002384;27;85113;-40
2023/10/14 11:02:24;;;;;;;;;;;20.10;63.80;;;;;;5009574;27;88251;-41
2023/10/14 11:04:49;;;;;;;;;;;20.20;64.20;;;;;;5008674;27;86012;-41
2023/10/14 11:07:17;;;;;;;;;;;20.30;64.40;;;;;;5010532;27;85135;-41
2023/10/14 11:09:43;;;;;;;;;;;20.30;64.50;;;;;;5012484;27;84746;-40
2023/10/14 11:12:10;;;;;;;;;;;20.30;64.80;;;;;;5007550;27;86451;-40
2023/10/14 11:14:35;;;;;;;;;;;20.30;64.80;;;;;;5011571;27;85258;-40
2023/10/14 11:17:01;;;;;;;;;;;20.40;65.00;;;;;;5005837;27;84476;-40
2023/10/14 11:19:32;;;;;;;;;;;20.40;65.30;;;;;;5004340;27;86388;-43
2023/10/14 11:21:58;;;;;;;;;;;20.40;65.60;;;;;;5005356;27;84296;-40
2023/10/14 11:24:25;;;;;;;;;;;20.40;66.10;;;;;;5010099;27;86011;-40
2023/10/14 11:26:51;;;;;;;;;;;20.40;65.90;;;;;;5008123;27;88250;-40
2023/10/14 11:29:17;;;;;;;;;;;20.40;66.10;;;;;;5010480;27;83559;-41
2023/10/14 11:31:45;;;;;;;;;;;20.50;66.20;;;;;;4999613;27;85348;-41
2023/10/14 11:34:14;;;;;;;;;;;20.50;66.50;;;;;;5006327;27;85073;-40
2023/10/14 11:36:40;;;;;;;;;;;20.50;66.50;;;;;;5007938;27;85864;-41
2023/10/14 11:39:32;;;;;;;;;;;20.50;66.90;;;;;;5005573;27;84768;-41
2023/10/14 11:41:55;;;;;;;;;;;20.40;67.00;;;;;;5010381;27;84719;-41
2023/10/14 11:44:20;;;;;;;;;;;20.40;66.90;;;;;;5019760;27;84257;-40
2023/10/14 11:46:46;;;;;;;;;;;20.50;67.10;;;;;;5019035;27;84440;-41
2023/10/14 11:49:13;;;;;;;;;;;20.50;67.40;;;;;;5017325;27;84572;-40
2023/10/14 11:51:40;;;;;;;;;;;20.50;68.20;;;;;;4993555;27;85408;-40
2023/10/14 11:54:06;;;;;;;;;;;20.60;67.70;;;;;;5009402;27;84347;-40
2023/10/14 11:56:32;;;;;;;;;;;20.60;67.70;;;;;;5002956;27;85295;-40
2023/10/14 11:59:00;;;;;;;;;;;20.60;67.70;;;;;;5017992;27;84655;-40
2023/10/14 12:01:26;;;;;;;;;;;20.60;67.90;;;;;;5010326;27;87033;-42
2023/10/14 12:03:51;;;;;;;;;;;20.60;68.20;;;;;;5024951;27;85184;-41
2023/10/14 12:06:17;;;;;;;;;;;20.60;68.30;;;;;;5007292;27;85944;-40
2023/10/14 12:08:45;;;;;;;;;;;20.60;68.30;;;;;;5010791;27;88442;-41
2023/10/14 12:11:13;;;;;;;;;;;20.50;68.20;;;;;;5017741;27;84800;-41
2023/10/14 12:13:40;;;;;;;;;;;20.50;68.30;;;;;;5017196;27;84440;-42
2023/10/14 12:16:06;;;;;;;;;;;20.50;68.30;;;;;;5020561;27;84607;-41
2023/10/14 12:18:37;;;;;;;;;;;20.60;68.30;;;;;;5026507;27;83626;-43
2023/10/14 12:21:03;;;;;;;;;;;20.60;68.30;;;;;;5014385;27;87586;-42
2023/10/14 12:23:32;;;;;;;;;;;20.70;68.20;;;;;;5013100;27;84915;-40
2023/10/14 12:26:01;;;;;;;;;;;20.80;68.30;;;;;;5017216;27;85320;-41
2023/10/14 12:28:30;;;;;;;;;;;20.70;68.10;;;;;;5011167;27;84437;-40
2023/10/14 12:31:02;;;;;;;;;;;20.70;68.20;;;;;;5007472;27;85002;-40
2023/10/14 12:33:31;;;;;;;;;;;20.70;67.90;;;;;;5022803;27;84244;-41
2023/10/14 12:35:57;;;;;;;;;;;20.80;68.10;;;;;;5023472;27;84540;-40
2023/10/14 12:38:26;;;;;;;;;;;20.90;68.00;;;;;;5013511;27;84306;-39
2023/10/14 12:40:52;;;;;;;;;;;20.80;68.10;;;;;;5013806;27;85137;-40
2023/10/14 12:43:27;;;;;;;;;;;20.90;68.00;;;;;;5015837;27;83606;-40
2023/10/14 12:45:53;;;;;;;;;;;20.90;68.20;;;;;;5017326;27;86489;-40
2023/10/14 12:48:24;;;;;;;;;;;20.90;68.10;;;;;;5015573;27;84356;-39
2023/10/14 12:50:51;;;;;;;;;;;21.00;68.30;;;;;;5013231;27;88068;-40
2023/10/14 12:53:16;;;;;;;;;;;21.00;68.10;;;;;;5013686;27;84903;-40
2023/10/14 12:55:44;;;;;;;;;;;21.00;68.20;;;;;;5026962;27;84417;-40
2023/10/14 12:58:15;;;;;;;;;;;21.00;68.00;;;;;;5014653;27;87014;-40
2023/10/14 13:00:42;;;;;;;;;;;21.10;67.80;;;;;;5024244;27;84832;-40
2023/10/14 13:03:11;;;;;;;;;;;21.10;68.00;;;;;;5008842;27;84686;-40
2023/10/14 13:05:38;;;;;;;;;;;21.10;68.20;;;;;;5014275;27;90294;-40
2023/10/14 13:08:03;;;;;;;;;;;21.10;68.10;;;;;;5018020;27;83554;-41
2023/10/14 13:10:29;;;;;;;;;;;21.00;69.10;;;;;;5004220;27;85835;-40
2023/10/14 13:12:56;;;;;;;;;;;21.00;69.50;;;;;;4994281;27;87681;-39
2023/10/14 13:15:27;;;;;;;;;;;21.00;69.20;;;;;;5008362;27;85361;-41
2023/10/14 13:17:59;;;;;;;;;;;20.90;68.70;;;;;;5017307;27;85749;-41
2023/10/14 13:20:26;;;;;;;;;;;21.00;68.50;;;;;;5013093;27;84628;-39
2023/10/14 13:22:52;;;;;;;;;;;21.00;68.30;;;;;;5026388;27;85292;-39
2023/10/14 13:25:18;;;;;;;;;;;20.90;68.10;;;;;;5017717;27;84516;-40
2023/10/14 13:27:43;;;;;;;;;;;21.00;68.50;;;;;;5008380;27;87211;-40
2023/10/14 13:30:09;;;;;;;;;;;21.00;68.50;;;;;;5015096;27;88621;-40
2023/10/14 13:32:44;;;;;;;;;;;21.00;68.40;;;;;;5012704;27;85932;-41
2023/10/14 13:35:09;;;;;;;;;;;20.90;68.50;;;;;;5023755;27;84487;-40
2023/10/14 13:37:35;;;;;;;;;;;20.90;68.50;;;;;;5016570;27;84836;-40
2023/10/14 13:40:00;;;;;;;;;;;20.90;68.10;;;;;;5020703;27;85529;-40
2023/10/14 13:42:26;;;;;;;;;;;20.90;68.00;;;;;;5012131;27;85690;-41
2023/10/14 13:44:51;;;;;;;;;;;20.90;68.10;;;;;;5016721;27;84394;-40
2023/10/14 13:47:17;;;;;;;;;;;21.00;67.70;;;;;;5010160;27;87988;-40
2023/10/14 13:49:45;;;;;;;;;;;21.00;67.80;;;;;;5014394;27;86442;-39
2023/10/14 13:52:16;;;;;;;;;;;21.00;67.50;;;;;;5006500;27;84204;-40
2023/10/14 13:54:44;;;;;;;;;;;21.00;67.60;;;;;;5005332;27;84369;-40
2023/10/14 13:57:11;;;;;;;;;;;21.00;67.40;;;;;;4990431;27;84339;-40
2023/10/14 13:59:38;;;;;;;;;;;21.10;67.50;;;;;;5015193;27;84828;-40
2023/10/14 14:02:04;;;;;;;;;;;21.00;66.70;;;;;;5016153;27;85002;-40
2023/10/14 14:04:32;;;;;;;;;;;21.00;65.80;;;;;;5017631;27;85160;-43
2023/10/14 14:06:59;;;;;;;;;;;21.10;66.20;;;;;;5015143;27;84719;-40
2023/10/14 14:09:27;;;;;;;;;;;21.10;66.60;;;;;;5014204;27;84777;-40
2023/10/14 14:11:55;;;;;;;;;;;21.10;66.10;;;;;;5012498;27;85604;-40
2023/10/14 14:14:22;;;;;;;;;;;21.10;66.00;;;;;;5014459;27;84676;-40
2023/10/14 14:16:48;;;;;;;;;;;21.10;65.80;;;;;;5012508;27;85778;-40
2023/10/14 14:19:15;;;;;;;;;;;21.10;65.20;;;;;;5011961;27;85979;-41
2023/10/14 14:21:43;;;;;;;;;;;21.00;63.80;;;;;;5005998;27;84362;-40
2023/10/14 14:24:09;;;;;;;;;;;20.90;64.90;;;;;;5013375;27;84546;-40
2023/10/14 14:26:35;;;;;;;;;;;21.00;65.30;;;;;;5010159;27;85013;-40
2023/10/14 14:29:02;;;;;;;;;;;21.00;65.00;;;;;;5012218;27;85583;-40
2023/10/14 14:31:29;;;;;;;;;;;21.00;64.90;;;;;;5019526;27;84433;-40
2023/10/14 14:33:54;;;;;;;;;;;21.00;64.90;;;;;;5016328;27;84907;-41
2023/10/14 14:36:20;;;;;;;;;;;21.00;65.00;;;;;;5016344;27;84554;-40
2023/10/14 14:38:46;;;;;;;;;;;21.00;65.60;;;;;;5017952;27;84197;-41
2023/10/14 14:41:25;;;;;;;;;;;21.00;65.60;;;;;;5015641;27;85056;-40
2023/10/14 14:43:51;;;;;;;;;;;21.00;65.60;;;;;;5004070;27;84761;-39
2023/10/14 14:46:17;;;;;;;;;;;21.00;65.10;;;;;;5012026;27;84928;-40